D/T METAR WX W/DIR W/SPE G/SPE TEMP DEWP
19/03/19 03:20 EGGD 190320Z AUTO 24006KT 4600 BR BKN001 OVC028 07/06 Q1025 BR WSW (240°) 6.9mph 7°C 6°C
19/03/19 02:50 EGGD 190250Z AUTO 23007KT 0200 R27/0750 FG VV/// 07/07 Q1025 FG SW (230°) 8.1mph 7°C 7°C
19/03/19 02:20 EGGD 190220Z AUTO 24007KT 1200 R27/1300 BR OVC001 07/06 Q1025 BR WSW (240°) 8.1mph 7°C 6°C
19/03/19 01:50 EGGD 190150Z AUTO 24008KT 0100 R27/0500 FG VV/// 07/06 Q1025 FG WSW (240°) 9.2mph 7°C 6°C
19/03/19 01:20 EGGD 190120Z AUTO 24006KT 0100 R27/0450 FG VV/// 07/06 Q1025 FG WSW (240°) 6.9mph 7°C 6°C
19/03/19 00:50 EGGD 190050Z AUTO 23005KT 0100 R27/0500 FG VV/// 07/06 Q1025 FG SW (230°) 5.8mph 7°C 6°C
19/03/19 00:20 EGGD 190020Z AUTO 24006KT 0100 R27/0400 FG VV/// 07/06 Q1025 FG WSW (240°) 6.9mph 7°C 6°C
18/03/19 23:50 EGGD 182350Z AUTO 25006KT 0100 R27/0500 FG VV/// 07/06 Q1025 FG WSW (250°) 6.9mph 7°C 6°C
18/03/19 22:50 EGGD 182250Z AUTO 24004KT 0500 R27/0750 FG SCT001 OVC035 06/06 Q1024 FG WSW (240°) 4.6mph 6°C 6°C
18/03/19 22:20 EGGD 182220Z AUTO 23005KT 0350 R27/0900 FG BKN001 BKN031 06/06 Q1024 FG SW (230°) 5.8mph 6°C 6°C
18/03/19 21:50 EGGD 182150Z AUTO 24005KT 0650 R27/1000 FG BKN001 OVC035 07/06 Q1024 FG WSW (240°) 5.8mph 7°C 6°C
18/03/19 20:50 EGGD 182050Z 25005KT 7000 BKN002 07/06 Q1024 WSW (250°) 5.8mph 7°C 6°C
18/03/19 19:50 EGGD 181950Z AUTO 22005KT 9999 BKN002 OVC034 07/06 Q1023 SW (220°) 5.8mph 7°C 6°C
18/03/19 19:20 EGGD 181920Z AUTO 26007KT 9000 BKN002 OVC034 06/06 Q1023 W (260°) 8.1mph 6°C 6°C
18/03/19 18:50 EGGD 181850Z 26010KT 9999 SCT003 SCT036 06/06 Q1023 W (260°) 11.5mph 6°C 6°C
18/03/19 18:20 EGGD 181820Z 26008KT 9999 VCSH BKN004 07/06 Q1022 VCSH W (260°) 9.2mph 7°C 6°C
18/03/19 17:50 EGGD 181750Z 25009KT 9999 VCSH SCT004 SCT028 07/06 Q1022 VCSH WSW (250°) 10.4mph 7°C 6°C
18/03/19 17:20 EGGD 181720Z 25009KT 9999 SCT007 BKN026 07/06 Q1022 WSW (250°) 10.4mph 7°C 6°C
18/03/19 16:50 EGGD 181650Z 25010KT 9999 SCT008 BKN020 07/06 Q1022 WSW (250°) 11.5mph 7°C 6°C
18/03/19 16:20 EGGD 181620Z 27012KT 9999 SCT007 BKN025 07/06 Q1021 W (270°) 13.8mph 7°C 6°C
18/03/19 15:50 EGGD 181550Z AUTO 26013KT 9999 BKN006 OVC009 07/06 Q1021 W (260°) 15.0mph 7°C 6°C
18/03/19 15:20 EGGD 181520Z AUTO 26011KT 9999 BKN007 OVC024 07/06 Q1021 W (260°) 12.7mph 7°C 6°C
18/03/19 14:50 EGGD 181450Z AUTO 26015KT 9999 BKN005 OVC010 07/06 Q1021 W (260°) 17.3mph 7°C 6°C
18/03/19 14:20 EGGD 181420Z AUTO 25014KT 9999 BKN007 OVC012 07/05 Q1021 WSW (250°) 16.1mph 7°C 5°C
18/03/19 13:50 EGGD 181350Z AUTO 26013KT 9999 -RA BKN008 OVC013 07/05 Q1021 -RA W (260°) 15.0mph 7°C 5°C
18/03/19 13:20 EGGD 181320Z AUTO 26013KT 9999 BKN009 OVC015 07/05 Q1021 W (260°) 15.0mph 7°C 5°C
18/03/19 12:50 EGGD 181250Z AUTO 26013KT 9999 BKN010 OVC017 07/05 Q1021 W (260°) 15.0mph 7°C 5°C
18/03/19 12:20 EGGD 181220Z AUTO 25014KT 9999 OVC010 07/04 Q1021 WSW (250°) 16.1mph 7°C 4°C
18/03/19 11:50 EGGD 181150Z AUTO 26014KT 9999 BKN012 OVC024 07/04 Q1022 W (260°) 16.1mph 7°C 4°C
18/03/19 11:20 EGGD 181120Z AUTO 27017KT 9999 BKN015 07/04 Q1022 W (270°) 19.6mph 7°C 4°C
18/03/19 10:50 EGGD 181050Z AUTO 27013KT 9999 BKN014 07/04 Q1022 W (270°) 15.0mph 7°C 4°C
18/03/19 10:20 EGGD 181020Z AUTO 27013KT 9999 SCT017 BKN030 BKN046 07/03 Q1022 W (270°) 15.0mph 7°C 3°C
18/03/19 09:50 EGGD 180950Z 28015KT 9999 SCT018 07/03 Q1021 W (280°) 17.3mph 7°C 3°C
18/03/19 09:20 EGGD 180920Z AUTO 27013KT 9999 SCT012 BKN016 07/04 Q1021 W (270°) 15.0mph 7°C 4°C
18/03/19 08:50 EGGD 180850Z AUTO 26010KT 9999 BKN009 07/04 Q1021 W (260°) 11.5mph 7°C 4°C
18/03/19 08:20 EGGD 180820Z AUTO 24008KT 9999 BKN009 06/04 Q1020 WSW (240°) 9.2mph 6°C 4°C
18/03/19 07:50 EGGD 180750Z AUTO 24007KT 9999 NCD 05/04 Q1020 WSW (240°) 8.1mph 5°C 4°C
18/03/19 07:20 EGGD 180720Z AUTO 26005KT 9999 NCD 05/03 Q1020 W (260°) 5.8mph 5°C 3°C
18/03/19 06:50 EGGD 180650Z AUTO 25008KT 9999 NCD 05/03 Q1020 WSW (250°) 9.2mph 5°C 3°C
18/03/19 06:20 EGGD 180620Z AUTO 26007KT 9999 NCD 05/03 Q1020 W (260°) 8.1mph 5°C 3°C
18/03/19 05:50 EGGD 180550Z AUTO 25009KT 9999 NCD 05/03 Q1019 WSW (250°) 10.4mph 5°C 3°C
18/03/19 05:20 EGGD 180520Z AUTO 24008KT 9999 NCD 04/03 Q1019 WSW (240°) 9.2mph 4°C 3°C
18/03/19 04:50 EGGD 180450Z AUTO 25008KT 9999 SCT044 05/03 Q1019 WSW (250°) 9.2mph 5°C 3°C
18/03/19 04:20 EGGD 180420Z AUTO 25009KT 9999 NCD 05/03 Q1019 WSW (250°) 10.4mph 5°C 3°C
18/03/19 03:20 EGGD 180320Z AUTO 25008KT 9999 NCD 04/02 Q1018 WSW (250°) 9.2mph 4°C 2°C
18/03/19 02:50 EGGD 180250Z AUTO 27011KT 9999 NCD 04/02 Q1018 W (270°) 12.7mph 4°C 2°C
18/03/19 02:20 EGGD 180220Z AUTO 26010KT 9999 NCD 04/02 Q1018 W (260°) 11.5mph 4°C 2°C
18/03/19 01:20 EGGD 180120Z AUTO 25008KT 9999 NCD 04/02 Q1018 WSW (250°) 9.2mph 4°C 2°C
18/03/19 00:50 EGGD 180050Z AUTO 28010KT 9999 NCD 04/02 Q1017 W (280°) 11.5mph 4°C 2°C
18/03/19 00:20 EGGD 180020Z AUTO 28011KT 9999 NCD 04/02 Q1017 W (280°) 12.7mph 4°C 2°C
17/03/19 23:20 EGGD 172320Z AUTO 26010KT 9999 NCD 04/02 Q1016 W (260°) 11.5mph 4°C 2°C
17/03/19 22:50 EGGD 172250Z AUTO 27011KT 9999 NCD 05/03 Q1016 W (270°) 12.7mph 5°C 3°C
17/03/19 22:20 EGGD 172220Z AUTO 25009KT 9999 NCD 04/03 Q1015 WSW (250°) 10.4mph 4°C 3°C
17/03/19 21:50 EGGD 172150Z AUTO 23006KT 9999 NCD 05/03 Q1015 SW (230°) 6.9mph 5°C 3°C
17/03/19 20:50 EGGD 172050Z AUTO 27010KT 9999 NCD 05/03 Q1014 W (270°) 11.5mph 5°C 3°C
17/03/19 20:20 EGGD 172020Z AUTO 27012KT 9999 NCD 05/03 Q1013 W (270°) 13.8mph 5°C 3°C
17/03/19 19:50 EGGD 171950Z 28013KT 9999 SCT034 05/03 Q1013 W (280°) 15.0mph 5°C 3°C
17/03/19 19:20 EGGD 171920Z AUTO 27014KT 9999 SCT030 05/03 Q1012 W (270°) 16.1mph 5°C 3°C
17/03/19 18:50 EGGD 171850Z 28014KT 9999 SCT031 06/03 Q1012 W (280°) 16.1mph 6°C 3°C
17/03/19 18:20 EGGD 171820Z 26011KT 9999 SCT031 SCT041 06/04 Q1011 W (260°) 12.7mph 6°C 4°C
17/03/19 17:50 EGGD 171750Z 26014KT 9999 FEW017 SCT035 06/04 Q1010 W (260°) 16.1mph 6°C 4°C
17/03/19 17:20 EGGD 171720Z 26015KT 9999 -SHRA SCT016 SCT036 06/04 Q1010 -SHRA W (260°) 17.3mph 6°C 4°C
17/03/19 16:50 EGGD 171650Z 26015KT 9999 VCSH SCT014 SCT023 06/04 Q1010 VCSH W (260°) 17.3mph 6°C 4°C
17/03/19 15:50 EGGD 171550Z 26014KT 9999 VCSH SCT026 SCT038 06/02 Q1009 VCSH W (260°) 16.1mph 6°C 2°C
17/03/19 15:20 EGGD 171520Z 26022KT 9999 VCSH SCT024 SCT040 05/01 Q1009 VCSH W (260°) 25.3mph 5°C 1°C
17/03/19 14:50 EGGD 171450Z 25020G30KT 9999 VCSH FEW021 FEW030TCU SCT042 07/02 Q1008 VCSH WSW (250°) 23.0mph 34.5mph 7°C 2°C
17/03/19 14:20 EGGD 171420Z AUTO 25024KT 9999 FEW026 SCT035 07/01 Q1008 WSW (250°) 27.6mph 7°C 1°C
17/03/19 13:50 EGGD 171350Z AUTO 26019KT 9999 SCT023 08/02 Q1008 W (260°) 21.9mph 8°C 2°C
17/03/19 13:20 EGGD 171320Z AUTO 25019KT 9999 FEW022 SCT031 BKN042 07/02 Q1008 WSW (250°) 21.9mph 7°C 2°C
17/03/19 12:50 EGGD 171250Z AUTO 26020KT 9999 FEW027 BKN031 07/02 Q1007 W (260°) 23.0mph 7°C 2°C
17/03/19 11:50 EGGD 171150Z AUTO 27018KT 9999 FEW031 SCT041 07/00 Q1007 W (270°) 20.7mph 7°C 0°C
17/03/19 11:20 EGGD 171120Z AUTO 27019KT 9999 FEW031 SCT037 07/01 Q1007 W (270°) 21.9mph 7°C 1°C
17/03/19 10:50 EGGD 171050Z AUTO 28018KT 9999 BKN025 06/00 Q1006 W (280°) 20.7mph 6°C 0°C
17/03/19 10:20 EGGD 171020Z AUTO 27018KT 9999 BKN024 06/01 Q1006 W (270°) 20.7mph 6°C 1°C
17/03/19 09:50 EGGD 170950Z AUTO 27016KT 9999 BKN020 BKN024 05/01 Q1006 W (270°) 18.4mph 5°C 1°C
17/03/19 08:50 EGGD 170850Z AUTO 28015KT 9999 FEW017 05/01 Q1005 W (280°) 17.3mph 5°C 1°C
17/03/19 08:20 EGGD 170820Z AUTO 27016KT 9999 FEW014 04/01 Q1004 W (270°) 18.4mph 4°C 1°C
17/03/19 07:50 EGGD 170750Z AUTO 27012KT 9999 FEW014 04/01 Q1004 W (270°) 13.8mph 4°C 1°C
17/03/19 07:20 EGGD 170720Z AUTO 27012KT 9999 FEW015 03/01 Q1004 W (270°) 13.8mph 3°C 1°C
17/03/19 06:50 EGGD 170650Z AUTO 27012KT 9999 SCT013 03/01 Q1003 W (270°) 13.8mph 3°C 1°C
17/03/19 06:20 EGGD 170620Z AUTO 27013KT 9999 FEW015 02/00 Q1002 W (270°) 15.0mph 2°C 0°C
17/03/19 05:50 EGGD 170550Z AUTO 25011KT 9999 FEW047 03/01 Q1002 WSW (250°) 12.7mph 3°C 1°C
17/03/19 05:20 EGGD 170520Z AUTO 26011KT 9999 FEW015 BKN043 03/01 Q1002 W (260°) 12.7mph 3°C 1°C
17/03/19 04:50 EGGD 170450Z AUTO 26010KT 9999 SCT014/// BKN027/// BKN044/// //////TCU 03/01 Q1001 W (260°) 11.5mph 3°C 1°C
17/03/19 04:20 EGGD 170420Z AUTO 27009KT 9999 BKN014 BKN025 03/01 Q1001 W (270°) 10.4mph 3°C 1°C
17/03/19 03:20 EGGD 170320Z AUTO 26014KT 9999 BKN014 BKN019 04/02 Q1000 W (260°) 16.1mph 4°C 2°C
17/03/19 02:50 EGGD 170250Z AUTO 27015KT 9999 BKN015/// BKN020/// //////TCU 04/02 Q1000 W (270°) 17.3mph 4°C 2°C
17/03/19 01:50 EGGD 170150Z AUTO 26013KT 9999 BKN016 04/02 Q0999 W (260°) 15.0mph 4°C 2°C
17/03/19 01:20 EGGD 170120Z AUTO 27014KT 9999 SCT013 SCT029 04/02 Q0999 W (270°) 16.1mph 4°C 2°C
17/03/19 00:50 EGGD 170050Z AUTO 27013KT 9999 FEW015/// SCT028/// //////CB 04/03 Q0999 W (270°) 15.0mph 4°C 3°C
17/03/19 00:20 EGGD 170020Z AUTO 27014KT 9999 NCD 04/02 Q0998 W (270°) 16.1mph 4°C 2°C
16/03/19 23:20 EGGD 162320Z AUTO 26013KT 9999 FEW018 BKN036 BKN049 05/03 Q0998 W (260°) 15.0mph 5°C 3°C
16/03/19 22:50 EGGD 162250Z AUTO 26014KT 9999 BKN011 05/04 Q0997 W (260°) 16.1mph 5°C 4°C
16/03/19 22:20 EGGD 162220Z AUTO 26016KT 9999 FEW014 BKN045 06/04 Q0997 W (260°) 18.4mph 6°C 4°C
16/03/19 21:50 EGGD 162150Z AUTO 25015G26KT 9999 BKN003/// BKN009/// OVC017/// //////TCU 06/05 Q0997 RERA WSW (250°) 17.3mph 29.9mph 6°C 5°C
16/03/19 20:50 EGGD 162050Z 27016KT 9999 -RA FEW006 SCT020 BKN042 06/05 Q0996 RERA REDZ -RA W (270°) 18.4mph 6°C 5°C
16/03/19 20:20 EGGD 162020Z 26020G30KT 9000 -RADZ FEW004 SCT008 BKN016 07/06 Q0996 RERA REDZ -RA -DZ W (260°) 23.0mph 34.5mph 7°C 6°C
16/03/19 19:50 EGGD 161950Z 24013KT 9999 -RA SCT007 BKN016 07/06 Q0995 -RA WSW (240°) 15.0mph 7°C 6°C
16/03/19 19:20 EGGD 161920Z AUTO 24015KT 9999 -RA BKN006/// BKN010/// OVC040/// //////TCU 07/06 Q0995 -RA WSW (240°) 17.3mph 7°C 6°C
16/03/19 18:50 EGGD 161850Z AUTO 25018KT 6000 -RA BKN003/// BKN007/// OVC033/// //////CB 07/07 Q0995 RERA -RA WSW (250°) 20.7mph 7°C 7°C
16/03/19 18:20 EGGD 161820Z AUTO 25019G31KT 4900 RA BKN005/// BKN014/// OVC046/// //////CB 08/06 Q0995 RA WSW (250°) 21.9mph 35.7mph 8°C 6°C
16/03/19 17:50 EGGD 161750Z AUTO 21016KT 4800 RA OVC006/// //////CB 09/08 Q0995 RA SSW (210°) 18.4mph 9°C 8°C
16/03/19 16:50 EGGD 161650Z AUTO 21020G30KT 9999 BKN012 OVC017 10/07 Q0996 SSW (210°) 23.0mph 34.5mph 10°C 7°C
16/03/19 16:20 EGGD 161620Z AUTO 21023G33KT 9999 BKN015 OVC039 10/07 Q0996 SSW (210°) 26.5mph 38.0mph 10°C 7°C
16/03/19 15:50 EGGD 161550Z AUTO 21022G36KT 9999 OVC014 10/07 Q0996 SSW (210°) 25.3mph 41.4mph 10°C 7°C
16/03/19 15:20 EGGD 161520Z AUTO 21024G34KT 9999 BKN015 OVC020 10/07 Q0997 SSW (210°) 27.6mph 39.1mph 10°C 7°C
16/03/19 14:50 EGGD 161450Z AUTO 22028G38KT 9999 OVC017 10/06 Q0997 SW (220°) 32.2mph 43.7mph 10°C 6°C
16/03/19 14:20 EGGD 161420Z AUTO 22027G38KT 9999 OVC019 11/06 Q0997 SW (220°) 31.1mph 43.7mph 11°C 6°C
16/03/19 13:50 EGGD 161350Z AUTO 22023G37KT 9999 OVC023 11/06 Q0998 SW (220°) 26.5mph 42.6mph 11°C 6°C
16/03/19 13:20 EGGD 161320Z AUTO 22021KT 9999 BKN022 OVC033 11/06 Q0999 SW (220°) 24.2mph 11°C 6°C
16/03/19 12:50 EGGD 161250Z AUTO 22021G32KT 9999 BKN023 OVC035 11/06 Q0999 SW (220°) 24.2mph 36.8mph 11°C 6°C
16/03/19 12:20 EGGD 161220Z AUTO 22021KT 9999 BKN023 OVC031 11/06 Q1000 SW (220°) 24.2mph 11°C 6°C
16/03/19 11:50 EGGD 161150Z AUTO 22018KT 9999 OVC022 11/06 Q1001 SW (220°) 20.7mph 11°C 6°C
16/03/19 11:20 EGGD 161120Z AUTO 22020KT 9999 OVC023 11/06 Q1002 SW (220°) 23.0mph 11°C 6°C
16/03/19 10:50 EGGD 161050Z AUTO 23019KT 9999 BKN019 OVC029 10/06 Q1002 SW (230°) 21.9mph 10°C 6°C
16/03/19 10:20 EGGD 161020Z AUTO 23017G27KT 9999 BKN017 OVC023 10/06 Q1003 SW (230°) 19.6mph 31.1mph 10°C 6°C
16/03/19 09:50 EGGD 160950Z AUTO 23018KT 9999 OVC018 10/06 Q1003 SW (230°) 20.7mph 10°C 6°C
16/03/19 09:20 EGGD 160920Z AUTO 23017G27KT 9999 OVC020 10/06 Q1003 SW (230°) 19.6mph 31.1mph 10°C 6°C
16/03/19 08:20 EGGD 160820Z AUTO 23017KT 9999 OVC020 09/06 Q1004 SW (230°) 19.6mph 9°C 6°C
16/03/19 07:50 EGGD 160750Z AUTO 24020G30KT 9999 OVC020 09/06 Q1004 WSW (240°) 23.0mph 34.5mph 9°C 6°C
16/03/19 07:20 EGGD 160720Z AUTO 23019KT 9999 OVC017 09/06 Q1005 SW (230°) 21.9mph 9°C 6°C
16/03/19 06:50 EGGD 160650Z AUTO 23017KT 9999 OVC014 09/07 Q1005 SW (230°) 19.6mph 9°C 7°C
16/03/19 05:50 EGGD 160550Z AUTO 23017KT 9999 OVC011 09/07 Q1005 SW (230°) 19.6mph 9°C 7°C
16/03/19 04:50 EGGD 160450Z AUTO 23015G25KT 9999 OVC011 09/07 Q1006 SW (230°) 17.3mph 28.8mph 9°C 7°C
16/03/19 04:20 EGGD 160420Z AUTO 23018KT 9999 BKN009 OVC014 09/07 Q1007 SW (230°) 20.7mph 9°C 7°C
16/03/19 03:50 EGGD 160350Z AUTO 24018G28KT 9999 OVC007 09/08 Q1007 WSW (240°) 20.7mph 32.2mph 9°C 8°C
16/03/19 03:20 EGGD 160320Z AUTO 23016KT 9999 -RA OVC006 09/08 Q1007 -RA SW (230°) 18.4mph 9°C 8°C
16/03/19 02:50 EGGD 160250Z AUTO 23017KT 9999 OVC008 10/08 Q1007 SW (230°) 19.6mph 10°C 8°C
16/03/19 01:50 EGGD 160150Z AUTO 23012KT 9999 OVC006 09/08 Q1008 SW (230°) 13.8mph 9°C 8°C
16/03/19 01:20 EGGD 160120Z AUTO 23014KT 9999 -RA OVC006 09/08 Q1009 RERA REDZ -RA SW (230°) 16.1mph 9°C 8°C
16/03/19 00:50 EGGD 160050Z AUTO 23016KT 9999 OVC006 09/08 Q1009 SW (230°) 18.4mph 9°C 8°C
16/03/19 00:20 EGGD 160020Z AUTO 23016KT 9999 OVC006 09/08 Q1009 SW (230°) 18.4mph 9°C 8°C
15/03/19 23:50 EGGD 152350Z AUTO 24016KT 9999 BKN006 OVC009 09/09 Q1009 WSW (240°) 18.4mph 9°C 9°C
15/03/19 23:20 EGGD 152320Z AUTO 24014KT 9999 -RA OVC004 09/09 Q1010 -RA WSW (240°) 16.1mph 9°C 9°C
15/03/19 22:50 EGGD 152250Z AUTO 24017KT 9999 OVC003 09/09 Q1010 WSW (240°) 19.6mph 9°C 9°C
15/03/19 22:20 EGGD 152220Z AUTO 24014KT 9999 -RA OVC003 09/09 Q1010 RERA -RA WSW (240°) 16.1mph 9°C 9°C
15/03/19 21:50 EGGD 152150Z AUTO 24015KT 2900 RA VV/// 09/09 Q1010 RA WSW (240°) 17.3mph 9°C 9°C
15/03/19 21:20 EGGD 152120Z AUTO 25013KT 0200 R27/0550 FG VV/// 09/08 Q1010 FG WSW (250°) 15.0mph 9°C 8°C
15/03/19 20:20 EGGD 152020Z AUTO 25012KT 0800 R27/P1500 RA FG VV/// 08/08 Q1011 RA FG WSW (250°) 13.8mph 8°C 8°C
15/03/19 19:50 EGGD 151950Z AUTO 25014KT 1000 R27/P1500 BR VV/// 08/08 Q1011 RERA BR WSW (250°) 16.1mph 8°C 8°C
15/03/19 19:20 EGGD 151920Z AUTO 25015KT 0750 R27/P1500 RA FG BKN002 08/08 Q1011 RA FG WSW (250°) 17.3mph 8°C 8°C
15/03/19 18:50 EGGD 151850Z AUTO 25013KT 0250 R27/0900 FG VV/// 08/08 Q1010 FG WSW (250°) 15.0mph 8°C 8°C
15/03/19 18:20 EGGD 151820Z AUTO 25014KT 0350 R27/1300 FG VV/// 08/08 Q1010 RERA FG WSW (250°) 16.1mph 8°C 8°C
15/03/19 17:50 EGGD 151750Z AUTO 26016KT 0600 R27/1200 RA FG VV/// 08/08 Q1010 RA FG W (260°) 18.4mph 8°C 8°C